sensor_id;sensor_type;location;lat;lon;timestamp;P1;durP1;ratioP1;P2;durP2;ratioP2
10063;SDS011;5071;52.360;13.134;2022-07-23T00:03:58;4.87;;;4.37;;
10063;SDS011;5071;52.360;13.134;2022-07-23T00:09:01;4.80;;;4.30;;
10063;SDS011;5071;52.360;13.134;2022-07-23T00:14:05;6.30;;;4.00;;
10063;SDS011;5071;52.360;13.134;2022-07-23T00:19:08;6.37;;;4.20;;
10063;SDS011;5071;52.360;13.134;2022-07-23T00:24:11;6.27;;;4.40;;
10063;SDS011;5071;52.360;13.134;2022-07-23T00:29:13;5.27;;;4.57;;
10063;SDS011;5071;52.360;13.134;2022-07-23T00:34:15;6.70;;;4.77;;
10063;SDS011;5071;52.360;13.134;2022-07-23T00:39:18;5.47;;;4.10;;
10063;SDS011;5071;52.360;13.134;2022-07-23T00:44:20;8.13;;;4.63;;
10063;SDS011;5071;52.360;13.134;2022-07-23T00:49:25;6.03;;;4.70;;
10063;SDS011;5071;52.360;13.134;2022-07-23T00:54:31;5.33;;;4.60;;
10063;SDS011;5071;52.360;13.134;2022-07-23T00:59:33;6.30;;;4.13;;
10063;SDS011;5071;52.360;13.134;2022-07-23T01:04:36;7.40;;;4.73;;
10063;SDS011;5071;52.360;13.134;2022-07-23T01:09:39;5.60;;;4.70;;
10063;SDS011;5071;52.360;13.134;2022-07-23T01:14:42;7.80;;;4.17;;
10063;SDS011;5071;52.360;13.134;2022-07-23T01:19:44;6.20;;;4.13;;
10063;SDS011;5071;52.360;13.134;2022-07-23T01:24:48;6.63;;;4.17;;
10063;SDS011;5071;52.360;13.134;2022-07-23T01:29:50;4.20;;;3.77;;
10063;SDS011;5071;52.360;13.134;2022-07-23T01:34:52;6.43;;;4.57;;
10063;SDS011;5071;52.360;13.134;2022-07-23T01:39:56;6.10;;;4.73;;
10063;SDS011;5071;52.360;13.134;2022-07-23T01:44:58;9.40;;;4.60;;
10063;SDS011;5071;52.360;13.134;2022-07-23T01:50:01;5.87;;;4.00;;
10063;SDS011;5071;52.360;13.134;2022-07-23T01:55:05;6.87;;;4.10;;
10063;SDS011;5071;52.360;13.134;2022-07-23T02:00:08;5.93;;;4.20;;
10063;SDS011;5071;52.360;13.134;2022-07-23T02:05:11;5.47;;;3.97;;
10063;SDS011;5071;52.360;13.134;2022-07-23T02:10:15;7.07;;;4.10;;
10063;SDS011;5071;52.360;13.134;2022-07-23T02:15:17;6.83;;;3.77;;
10063;SDS011;5071;52.360;13.134;2022-07-23T02:20:19;5.30;;;3.73;;
10063;SDS011;5071;52.360;13.134;2022-07-23T02:25:23;6.90;;;3.57;;
10063;SDS011;5071;52.360;13.134;2022-07-23T02:30:25;3.57;;;2.87;;
10063;SDS011;5071;52.360;13.134;2022-07-23T02:35:27;6.83;;;3.10;;
10063;SDS011;5071;52.360;13.134;2022-07-23T02:40:30;5.63;;;3.30;;
10063;SDS011;5071;52.360;13.134;2022-07-23T02:45:32;5.87;;;2.87;;
10063;SDS011;5071;52.360;13.134;2022-07-23T02:50:35;5.27;;;2.93;;
10063;SDS011;5071;52.360;13.134;2022-07-23T02:55:39;4.83;;;3.40;;
10063;SDS011;5071;52.360;13.134;2022-07-23T03:00:41;3.97;;;3.47;;
10063;SDS011;5071;52.360;13.134;2022-07-23T03:05:43;3.73;;;3.00;;
10063;SDS011;5071;52.360;13.134;2022-07-23T03:10:47;6.00;;;3.37;;
10063;SDS011;5071;52.360;13.134;2022-07-23T03:15:49;7.17;;;3.27;;
10063;SDS011;5071;52.360;13.134;2022-07-23T03:20:51;4.83;;;3.10;;
10063;SDS011;5071;52.360;13.134;2022-07-23T03:25:54;5.70;;;3.30;;
10063;SDS011;5071;52.360;13.134;2022-07-23T03:30:56;9.13;;;3.10;;
10063;SDS011;5071;52.360;13.134;2022-07-23T03:35:59;6.20;;;3.13;;
10063;SDS011;5071;52.360;13.134;2022-07-23T03:41:03;4.57;;;2.97;;
10063;SDS011;5071;52.360;13.134;2022-07-23T03:46:06;4.10;;;3.00;;
10063;SDS011;5071;52.360;13.134;2022-07-23T03:51:08;3.03;;;2.50;;
10063;SDS011;5071;52.360;13.134;2022-07-23T03:56:12;3.50;;;2.53;;
10063;SDS011;5071;52.360;13.134;2022-07-23T04:01:14;4.73;;;2.70;;
10063;SDS011;5071;52.360;13.134;2022-07-23T04:06:16;3.70;;;2.50;;
10063;SDS011;5071;52.360;13.134;2022-07-23T04:11:19;3.00;;;2.03;;
10063;SDS011;5071;52.360;13.134;2022-07-23T04:16:22;4.03;;;2.67;;
10063;SDS011;5071;52.360;13.134;2022-07-23T04:21:24;6.00;;;2.90;;
10063;SDS011;5071;52.360;13.134;2022-07-23T04:26:27;6.87;;;2.60;;
10063;SDS011;5071;52.360;13.134;2022-07-23T04:31:29;5.67;;;2.90;;
10063;SDS011;5071;52.360;13.134;2022-07-23T04:36:37;5.37;;;3.30;;
10063;SDS011;5071;52.360;13.134;2022-07-23T04:41:41;7.40;;;3.33;;
10063;SDS011;5071;52.360;13.134;2022-07-23T04:46:43;10.30;;;3.63;;
10063;SDS011;5071;52.360;13.134;2022-07-23T04:51:45;7.40;;;3.13;;
10063;SDS011;5071;52.360;13.134;2022-07-23T04:56:48;6.57;;;3.30;;
10063;SDS011;5071;52.360;13.134;2022-07-23T05:01:50;5.10;;;3.47;;
10063;SDS011;5071;52.360;13.134;2022-07-23T05:06:52;5.43;;;4.10;;
10063;SDS011;5071;52.360;13.134;2022-07-23T05:11:56;6.57;;;3.90;;
10063;SDS011;5071;52.360;13.134;2022-07-23T05:16:58;3.73;;;2.97;;
10063;SDS011;5071;52.360;13.134;2022-07-23T05:22:00;4.70;;;3.17;;
10063;SDS011;5071;52.360;13.134;2022-07-23T05:27:03;6.57;;;3.40;;
10063;SDS011;5071;52.360;13.134;2022-07-23T05:32:05;8.43;;;3.33;;
10063;SDS011;5071;52.360;13.134;2022-07-23T05:37:08;5.60;;;3.30;;
10063;SDS011;5071;52.360;13.134;2022-07-23T05:42:11;5.90;;;3.30;;
10063;SDS011;5071;52.360;13.134;2022-07-23T05:47:13;5.80;;;3.17;;
10063;SDS011;5071;52.360;13.134;2022-07-23T05:52:15;6.60;;;3.57;;
10063;SDS011;5071;52.360;13.134;2022-07-23T05:57:18;4.70;;;2.83;;
10063;SDS011;5071;52.360;13.134;2022-07-23T06:02:25;4.13;;;3.57;;
10063;SDS011;5071;52.360;13.134;2022-07-23T06:07:27;4.97;;;3.53;;
10063;SDS011;5071;52.360;13.134;2022-07-23T06:12:31;3.93;;;3.50;;
10063;SDS011;5071;52.360;13.134;2022-07-23T06:17:33;6.60;;;4.00;;
10063;SDS011;5071;52.360;13.134;2022-07-23T06:22:36;5.27;;;4.03;;
10063;SDS011;5071;52.360;13.134;2022-07-23T06:27:39;6.30;;;3.70;;
10063;SDS011;5071;52.360;13.134;2022-07-23T06:32:41;4.60;;;3.77;;
10063;SDS011;5071;52.360;13.134;2022-07-23T06:37:44;8.30;;;3.80;;
10063;SDS011;5071;52.360;13.134;2022-07-23T06:42:50;8.20;;;3.70;;
10063;SDS011;5071;52.360;13.134;2022-07-23T06:47:52;4.73;;;3.90;;
10063;SDS011;5071;52.360;13.134;2022-07-23T06:52:54;7.83;;;4.43;;
10063;SDS011;5071;52.360;13.134;2022-07-23T06:57:58;9.63;;;4.07;;
10063;SDS011;5071;52.360;13.134;2022-07-23T07:03:00;5.13;;;4.17;;
10063;SDS011;5071;52.360;13.134;2022-07-23T07:08:02;9.83;;;4.83;;
10063;SDS011;5071;52.360;13.134;2022-07-23T07:13:05;9.93;;;4.20;;
10063;SDS011;5071;52.360;13.134;2022-07-23T07:18:07;5.67;;;4.47;;
10063;SDS011;5071;52.360;13.134;2022-07-23T07:23:09;9.97;;;4.20;;
10063;SDS011;5071;52.360;13.134;2022-07-23T07:28:13;4.93;;;3.83;;
10063;SDS011;5071;52.360;13.134;2022-07-23T07:33:15;4.33;;;3.23;;
10063;SDS011;5071;52.360;13.134;2022-07-23T07:38:17;4.20;;;3.23;;
10063;SDS011;5071;52.360;13.134;2022-07-23T07:43:20;6.60;;;3.30;;
10063;SDS011;5071;52.360;13.134;2022-07-23T07:48:22;5.60;;;3.23;;
10063;SDS011;5071;52.360;13.134;2022-07-23T07:53:25;9.40;;;3.13;;
10063;SDS011;5071;52.360;13.134;2022-07-23T07:58:28;5.63;;;3.77;;
10063;SDS011;5071;52.360;13.134;2022-07-23T08:03:30;4.03;;;3.17;;
10063;SDS011;5071;52.360;13.134;2022-07-23T08:08:33;3.85;;;2.65;;
10063;SDS011;5071;52.360;13.134;2022-07-23T08:13:37;5.15;;;2.70;;
10063;SDS011;5071;52.360;13.134;2022-07-23T08:18:38;3.47;;;2.10;;
10063;SDS011;5071;52.360;13.134;2022-07-23T08:23:41;4.15;;;2.50;;
10063;SDS011;5071;52.360;13.134;2022-07-23T08:28:44;4.15;;;2.42;;
10063;SDS011;5071;52.360;13.134;2022-07-23T08:33:46;4.90;;;2.22;;
10063;SDS011;5071;52.360;13.134;2022-07-23T08:38:48;4.85;;;2.75;;
10063;SDS011;5071;52.360;13.134;2022-07-23T08:43:51;5.30;;;2.20;;
10063;SDS011;5071;52.360;13.134;2022-07-23T08:48:54;4.03;;;2.20;;
10063;SDS011;5071;52.360;13.134;2022-07-23T08:53:57;5.45;;;2.20;;
10063;SDS011;5071;52.360;13.134;2022-07-23T08:59:01;3.33;;;1.88;;
10063;SDS011;5071;52.360;13.134;2022-07-23T09:04:04;2.78;;;2.17;;
10063;SDS011;5071;52.360;13.134;2022-07-23T09:09:15;2.53;;;2.05;;
10063;SDS011;5071;52.360;13.134;2022-07-23T09:14:19;4.15;;;2.22;;
10063;SDS011;5071;52.360;13.134;2022-07-23T09:19:37;5.18;;;2.47;;
10063;SDS011;5071;52.360;13.134;2022-07-23T09:24:41;4.65;;;2.25;;
10063;SDS011;5071;52.360;13.134;2022-07-23T09:30:14;5.97;;;2.35;;
10063;SDS011;5071;52.360;13.134;2022-07-23T09:35:16;3.42;;;2.85;;
10063;SDS011;5071;52.360;13.134;2022-07-23T09:40:18;5.35;;;2.70;;
10063;SDS011;5071;52.360;13.134;2022-07-23T09:45:22;3.28;;;2.55;;
10063;SDS011;5071;52.360;13.134;2022-07-23T09:50:23;2.92;;;2.50;;
10063;SDS011;5071;52.360;13.134;2022-07-23T09:55:31;2.38;;;2.17;;
10063;SDS011;5071;52.360;13.134;2022-07-23T10:00:35;2.55;;;2.35;;
10063;SDS011;5071;52.360;13.134;2022-07-23T10:05:38;5.18;;;2.40;;
10063;SDS011;5071;52.360;13.134;2022-07-23T10:10:42;4.07;;;2.47;;
10063;SDS011;5071;52.360;13.134;2022-07-23T10:15:45;5.80;;;3.20;;
10063;SDS011;5071;52.360;13.134;2022-07-23T10:20:48;2.95;;;2.30;;
10063;SDS011;5071;52.360;13.134;2022-07-23T10:25:51;3.30;;;2.60;;
10063;SDS011;5071;52.360;13.134;2022-07-23T10:31:05;3.08;;;2.75;;
10063;SDS011;5071;52.360;13.134;2022-07-23T10:36:32;2.58;;;2.38;;
10063;SDS011;5071;52.360;13.134;2022-07-23T10:41:43;4.38;;;3.15;;
10063;SDS011;5071;52.360;13.134;2022-07-23T10:46:55;6.15;;;3.13;;
10063;SDS011;5071;52.360;13.134;2022-07-23T10:52:18;3.45;;;2.53;;
10063;SDS011;5071;52.360;13.134;2022-07-23T10:57:22;3.40;;;2.40;;
10063;SDS011;5071;52.360;13.134;2022-07-23T11:02:27;4.15;;;2.78;;
10063;SDS011;5071;52.360;13.134;2022-07-23T11:07:31;5.93;;;2.83;;
10063;SDS011;5071;52.360;13.134;2022-07-23T11:12:34;3.75;;;3.10;;
10063;SDS011;5071;52.360;13.134;2022-07-23T11:17:38;4.22;;;2.35;;
10063;SDS011;5071;52.360;13.134;2022-07-23T11:22:59;2.88;;;2.67;;
10063;SDS011;5071;52.360;13.134;2022-07-23T11:28:14;5.60;;;3.88;;
10063;SDS011;5071;52.360;13.134;2022-07-23T11:33:20;2.63;;;2.42;;
10063;SDS011;5071;52.360;13.134;2022-07-23T11:38:23;5.53;;;3.28;;
10063;SDS011;5071;52.360;13.134;2022-07-23T11:43:25;3.17;;;2.58;;
10063;SDS011;5071;52.360;13.134;2022-07-23T11:48:28;3.20;;;2.90;;
10063;SDS011;5071;52.360;13.134;2022-07-23T11:53:32;3.88;;;3.00;;
10063;SDS011;5071;52.360;13.134;2022-07-23T11:58:38;3.72;;;2.97;;
10063;SDS011;5071;52.360;13.134;2022-07-23T12:03:56;4.35;;;3.03;;
10063;SDS011;5071;52.360;13.134;2022-07-23T12:08:59;3.33;;;2.70;;
10063;SDS011;5071;52.360;13.134;2022-07-23T12:14:01;2.90;;;2.70;;
10063;SDS011;5071;52.360;13.134;2022-07-23T12:19:05;3.33;;;2.60;;
10063;SDS011;5071;52.360;13.134;2022-07-23T12:24:07;2.67;;;2.47;;
10063;SDS011;5071;52.360;13.134;2022-07-23T12:29:09;4.15;;;2.58;;
10063;SDS011;5071;52.360;13.134;2022-07-23T12:34:15;3.90;;;2.85;;
10063;SDS011;5071;52.360;13.134;2022-07-23T12:39:28;3.80;;;2.50;;
10063;SDS011;5071;52.360;13.134;2022-07-23T12:44:31;2.83;;;2.63;;
10063;SDS011;5071;52.360;13.134;2022-07-23T12:49:41;4.05;;;2.78;;
10063;SDS011;5071;52.360;13.134;2022-07-23T12:54:50;3.88;;;2.83;;
10063;SDS011;5071;52.360;13.134;2022-07-23T12:59:52;2.47;;;2.28;;
10063;SDS011;5071;52.360;13.134;2022-07-23T13:05:09;3.67;;;2.10;;
10063;SDS011;5071;52.360;13.134;2022-07-23T13:10:14;3.53;;;2.50;;
10063;SDS011;5071;52.360;13.134;2022-07-23T13:15:17;5.10;;;2.25;;
10063;SDS011;5071;52.360;13.134;2022-07-23T13:20:20;6.35;;;2.55;;
10063;SDS011;5071;52.360;13.134;2022-07-23T13:25:22;2.70;;;2.28;;
10063;SDS011;5071;52.360;13.134;2022-07-23T13:30:24;5.35;;;2.40;;
10063;SDS011;5071;52.360;13.134;2022-07-23T13:35:27;2.67;;;2.17;;
10063;SDS011;5071;52.360;13.134;2022-07-23T13:40:33;2.20;;;1.85;;
10063;SDS011;5071;52.360;13.134;2022-07-23T13:45:36;2.58;;;1.77;;
10063;SDS011;5071;52.360;13.134;2022-07-23T13:50:40;2.97;;;2.03;;
10063;SDS011;5071;52.360;13.134;2022-07-23T13:55:43;2.47;;;1.88;;
10063;SDS011;5071;52.360;13.134;2022-07-23T14:00:51;2.30;;;2.10;;
10063;SDS011;5071;52.360;13.134;2022-07-23T14:05:56;2.58;;;1.98;;
10063;SDS011;5071;52.360;13.134;2022-07-23T14:10:58;3.78;;;1.90;;
10063;SDS011;5071;52.360;13.134;2022-07-23T14:16:01;3.70;;;2.20;;
10063;SDS011;5071;52.360;13.134;2022-07-23T14:21:05;3.90;;;2.15;;
10063;SDS011;5071;52.360;13.134;2022-07-23T14:26:08;2.95;;;1.80;;
10063;SDS011;5071;52.360;13.134;2022-07-23T14:31:10;3.22;;;2.08;;
10063;SDS011;5071;52.360;13.134;2022-07-23T14:36:23;2.45;;;1.80;;
10063;SDS011;5071;52.360;13.134;2022-07-23T14:41:25;1.95;;;1.33;;
10063;SDS011;5071;52.360;13.134;2022-07-23T14:46:28;2.47;;;1.80;;
10063;SDS011;5071;52.360;13.134;2022-07-23T14:51:32;3.33;;;1.70;;
10063;SDS011;5071;52.360;13.134;2022-07-23T14:56:36;5.00;;;2.00;;
10063;SDS011;5071;52.360;13.134;2022-07-23T15:01:38;2.05;;;1.77;;
10063;SDS011;5071;52.360;13.134;2022-07-23T15:06:42;1.63;;;1.42;;
10063;SDS011;5071;52.360;13.134;2022-07-23T15:11:44;3.53;;;1.52;;
10063;SDS011;5071;52.360;13.134;2022-07-23T15:16:48;2.50;;;1.40;;
10063;SDS011;5071;52.360;13.134;2022-07-23T15:21:54;2.95;;;1.35;;
10063;SDS011;5071;52.360;13.134;2022-07-23T15:26:56;2.17;;;1.33;;
10063;SDS011;5071;52.360;13.134;2022-07-23T15:31:59;3.22;;;1.45;;
10063;SDS011;5071;52.360;13.134;2022-07-23T15:37:03;2.05;;;1.42;;
10063;SDS011;5071;52.360;13.134;2022-07-23T15:42:12;1.40;;;1.08;;
10063;SDS011;5071;52.360;13.134;2022-07-23T15:47:16;2.83;;;1.30;;
10063;SDS011;5071;52.360;13.134;2022-07-23T15:52:20;1.88;;;1.10;;
10063;SDS011;5071;52.360;13.134;2022-07-23T15:57:22;3.08;;;1.52;;
10063;SDS011;5071;52.360;13.134;2022-07-23T16:02:25;1.63;;;1.10;;
10063;SDS011;5071;52.360;13.134;2022-07-23T16:07:29;0.82;;;0.82;;
10063;SDS011;5071;52.360;13.134;2022-07-23T16:12:32;2.42;;;2.03;;
10063;SDS011;5071;52.360;13.134;2022-07-23T16:17:34;2.60;;;1.60;;
10063;SDS011;5071;52.360;13.134;2022-07-23T16:22:38;2.42;;;1.00;;
10063;SDS011;5071;52.360;13.134;2022-07-23T16:27:40;1.52;;;0.80;;
10063;SDS011;5071;52.360;13.134;2022-07-23T16:32:43;1.23;;;0.98;;
10063;SDS011;5071;52.360;13.134;2022-07-23T16:37:47;3.78;;;1.55;;
10063;SDS011;5071;52.360;13.134;2022-07-23T16:42:49;1.27;;;0.88;;
10063;SDS011;5071;52.360;13.134;2022-07-23T16:47:51;1.92;;;1.02;;
10063;SDS011;5071;52.360;13.134;2022-07-23T16:52:54;1.15;;;1.02;;
10063;SDS011;5071;52.360;13.134;2022-07-23T16:57:56;3.35;;;1.10;;
10063;SDS011;5071;52.360;13.134;2022-07-23T17:02:58;1.33;;;1.20;;
10063;SDS011;5071;52.360;13.134;2022-07-23T17:08:07;1.42;;;1.15;;
10063;SDS011;5071;52.360;13.134;2022-07-23T17:13:09;1.52;;;0.70;;
10063;SDS011;5071;52.360;13.134;2022-07-23T17:18:11;1.88;;;1.17;;
10063;SDS011;5071;52.360;13.134;2022-07-23T17:23:15;1.42;;;1.33;;
10063;SDS011;5071;52.360;13.134;2022-07-23T17:28:17;2.83;;;1.30;;
10063;SDS011;5071;52.360;13.134;2022-07-23T17:33:20;1.27;;;1.13;;
10063;SDS011;5071;52.360;13.134;2022-07-23T17:38:23;1.27;;;0.80;;
10063;SDS011;5071;52.360;13.134;2022-07-23T17:43:25;1.00;;;0.90;;
10063;SDS011;5071;52.360;13.134;2022-07-23T17:48:27;0.93;;;0.80;;
10063;SDS011;5071;52.360;13.134;2022-07-23T17:53:30;1.92;;;0.68;;
10063;SDS011;5071;52.360;13.134;2022-07-23T17:58:32;0.88;;;0.88;;
10063;SDS011;5071;52.360;13.134;2022-07-23T18:03:34;2.20;;;0.80;;
10063;SDS011;5071;52.360;13.134;2022-07-23T18:08:38;1.10;;;0.70;;
10063;SDS011;5071;52.360;13.134;2022-07-23T18:13:40;1.00;;;0.80;;
10063;SDS011;5071;52.360;13.134;2022-07-23T18:18:42;0.68;;;0.60;;
10063;SDS011;5071;52.360;13.134;2022-07-23T18:23:46;1.40;;;0.82;;
10063;SDS011;5071;52.360;13.134;2022-07-23T18:28:48;0.98;;;0.85;;
10063;SDS011;5071;52.360;13.134;2022-07-23T18:33:51;0.60;;;0.60;;
10063;SDS011;5071;52.360;13.134;2022-07-23T18:38:54;0.70;;;0.67;;
10063;SDS011;5071;52.360;13.134;2022-07-23T18:44:03;0.63;;;0.60;;
10063;SDS011;5071;52.360;13.134;2022-07-23T18:49:05;2.73;;;0.77;;
10063;SDS011;5071;52.360;13.134;2022-07-23T18:54:09;0.97;;;0.80;;
10063;SDS011;5071;52.360;13.134;2022-07-23T18:59:12;1.70;;;1.00;;
10063;SDS011;5071;52.360;13.134;2022-07-23T19:04:24;0.93;;;0.80;;
10063;SDS011;5071;52.360;13.134;2022-07-23T19:09:27;1.47;;;0.90;;
10063;SDS011;5071;52.360;13.134;2022-07-23T19:14:34;1.30;;;0.60;;
10063;SDS011;5071;52.360;13.134;2022-07-23T19:19:36;2.00;;;0.80;;
10063;SDS011;5071;52.360;13.134;2022-07-23T19:24:39;1.03;;;0.70;;
10063;SDS011;5071;52.360;13.134;2022-07-23T19:29:42;0.60;;;0.60;;
10063;SDS011;5071;52.360;13.134;2022-07-23T19:34:44;0.60;;;0.60;;
10063;SDS011;5071;52.360;13.134;2022-07-23T19:39:47;1.80;;;0.60;;
10063;SDS011;5071;52.360;13.134;2022-07-23T19:44:49;0.93;;;0.93;;
10063;SDS011;5071;52.360;13.134;2022-07-23T19:49:51;1.60;;;0.80;;
10063;SDS011;5071;52.360;13.134;2022-07-23T19:54:54;1.57;;;0.60;;
10063;SDS011;5071;52.360;13.134;2022-07-23T19:59:56;0.87;;;0.63;;
10063;SDS011;5071;52.360;13.134;2022-07-23T20:04:58;0.87;;;0.83;;
10063;SDS011;5071;52.360;13.134;2022-07-23T20:10:02;1.73;;;0.90;;
10063;SDS011;5071;52.360;13.134;2022-07-23T20:15:05;1.20;;;1.10;;
10063;SDS011;5071;52.360;13.134;2022-07-23T20:20:09;1.30;;;1.10;;
10063;SDS011;5071;52.360;13.134;2022-07-23T20:25:13;1.60;;;1.47;;
10063;SDS011;5071;52.360;13.134;2022-07-23T20:30:14;1.67;;;1.33;;
10063;SDS011;5071;52.360;13.134;2022-07-23T20:35:17;1.33;;;1.00;;
10063;SDS011;5071;52.360;13.134;2022-07-23T20:40:20;2.03;;;1.30;;
10063;SDS011;5071;52.360;13.134;2022-07-23T20:45:22;1.97;;;1.77;;
10063;SDS011;5071;52.360;13.134;2022-07-23T20:50:24;2.60;;;1.50;;
10063;SDS011;5071;52.360;13.134;2022-07-23T20:55:27;2.17;;;1.40;;
10063;SDS011;5071;52.360;13.134;2022-07-23T21:00:29;1.30;;;1.10;;
10063;SDS011;5071;52.360;13.134;2022-07-23T21:05:31;1.20;;;1.10;;
10063;SDS011;5071;52.360;13.134;2022-07-23T21:10:34;1.50;;;1.40;;
10063;SDS011;5071;52.360;13.134;2022-07-23T21:15:36;1.20;;;1.10;;
10063;SDS011;5071;52.360;13.134;2022-07-23T21:20:38;2.10;;;1.10;;
10063;SDS011;5071;52.360;13.134;2022-07-23T21:25:42;1.33;;;1.17;;
10063;SDS011;5071;52.360;13.134;2022-07-23T21:30:43;1.57;;;1.20;;
10063;SDS011;5071;52.360;13.134;2022-07-23T21:35:46;1.30;;;1.10;;
10063;SDS011;5071;52.360;13.134;2022-07-23T21:40:49;2.30;;;1.90;;
10063;SDS011;5071;52.360;13.134;2022-07-23T21:45:51;3.70;;;2.33;;
10063;SDS011;5071;52.360;13.134;2022-07-23T21:50:53;2.80;;;2.13;;
10063;SDS011;5071;52.360;13.134;2022-07-23T21:55:56;3.30;;;3.00;;
10063;SDS011;5071;52.360;13.134;2022-07-23T22:00:58;3.20;;;2.90;;
10063;SDS011;5071;52.360;13.134;2022-07-23T22:06:02;3.40;;;3.10;;
10063;SDS011;5071;52.360;13.134;2022-07-23T22:11:05;5.10;;;3.67;;
10063;SDS011;5071;52.360;13.134;2022-07-23T22:16:08;3.50;;;3.10;;
10063;SDS011;5071;52.360;13.134;2022-07-23T22:21:10;3.97;;;3.37;;
10063;SDS011;5071;52.360;13.134;2022-07-23T22:26:34;3.47;;;3.17;;
10063;SDS011;5071;52.360;13.134;2022-07-23T22:31:36;3.30;;;2.90;;
10063;SDS011;5071;52.360;13.134;2022-07-23T22:36:38;3.90;;;3.50;;
10063;SDS011;5071;52.360;13.134;2022-07-23T22:41:42;4.47;;;3.07;;
10063;SDS011;5071;52.360;13.134;2022-07-23T22:46:43;3.13;;;2.83;;
10063;SDS011;5071;52.360;13.134;2022-07-23T22:51:45;2.93;;;2.63;;
10063;SDS011;5071;52.360;13.134;2022-07-23T22:56:49;3.60;;;2.27;;
10063;SDS011;5071;52.360;13.134;2022-07-23T23:01:51;2.43;;;2.03;;
10063;SDS011;5071;52.360;13.134;2022-07-23T23:06:53;3.43;;;2.17;;
10063;SDS011;5071;52.360;13.134;2022-07-23T23:11:57;2.20;;;1.90;;
10063;SDS011;5071;52.360;13.134;2022-07-23T23:17:00;1.93;;;1.70;;
10063;SDS011;5071;52.360;13.134;2022-07-23T23:22:02;2.47;;;2.27;;
10063;SDS011;5071;52.360;13.134;2022-07-23T23:27:05;4.60;;;2.20;;
10063;SDS011;5071;52.360;13.134;2022-07-23T23:32:07;3.03;;;2.60;;
10063;SDS011;5071;52.360;13.134;2022-07-23T23:37:09;3.17;;;2.13;;
10063;SDS011;5071;52.360;13.134;2022-07-23T23:42:13;3.60;;;2.70;;
10063;SDS011;5071;52.360;13.134;2022-07-23T23:47:15;2.47;;;1.90;;
10063;SDS011;5071;52.360;13.134;2022-07-23T23:52:17;2.47;;;1.80;;
10063;SDS011;5071;52.360;13.134;2022-07-23T23:57:20;3.53;;;2.10;;
